Time;durP1;ratioP1;P1;durP2;ratioP2;P2;SDS_P1;SDS_P2;PMS_P1;PMS_P2;Temp;Humidity;BMP_temperature;BMP_pressure;BME280_temperature;BME280_humidity;BME280_pressure;Samples;Min_cycle;Max_cycle;Signal;HPM_P1;HPM_P2
2021/08/08 00:07:41;;;;;;;9.85;4.25;;;14.60;99.90;;;;;;20737519;28;20105;-51
2021/08/08 00:17:43;;;;;;;10.45;4.50;;;14.50;99.90;;;;;;20719799;28;20038;-53
2021/08/08 00:27:45;;;;;;;8.73;5.43;;;14.40;99.90;;;;;;20751290;28;20034;-49
2021/08/08 00:37:48;;;;;;;15.82;5.63;;;14.50;99.90;;;;;;20751262;28;20499;-52
2021/08/08 00:47:51;;;;;;;13.15;6.50;;;14.60;99.90;;;;;;20732808;28;20030;-49
2021/08/08 00:57:54;;;;;;;15.38;7.00;;;14.60;99.90;;;;;;20741450;28;20057;-51
2021/08/08 01:08:03;;;;;;;12.05;7.40;;;14.60;99.90;;;;;;20738202;28;20038;-56
2021/08/08 01:18:06;;;;;;;16.77;7.22;;;14.70;99.90;;;;;;20748138;28;20077;-54
2021/08/08 01:28:08;;;;;;;13.57;7.57;;;14.80;99.90;;;;;;20750127;28;20041;-53
2021/08/08 01:38:14;;;;;;;13.43;7.35;;;14.60;99.90;;;;;;20729149;28;20073;-55
2021/08/08 01:48:21;;;;;;;12.38;8.57;;;14.50;99.90;;;;;;20729057;28;20438;-57
2021/08/08 01:58:27;;;;;;;15.07;8.23;;;14.50;99.90;;;;;;20733744;28;20154;-53
2021/08/08 02:08:32;;;;;;;12.20;7.27;;;14.60;99.90;;;;;;20727484;28;20046;-55
2021/08/08 02:18:47;;;;;;;11.45;6.55;;;14.70;99.90;;;;;;20726053;28;20084;-56
2021/08/08 02:28:55;;;;;;;12.02;7.45;;;14.70;99.90;;;;;;20725392;28;20033;-50
2021/08/08 02:38:57;;;;;;;10.07;7.22;;;14.70;99.90;;;;;;20725687;28;20042;-56
2021/08/08 02:48:59;;;;;;;13.65;6.88;;;14.60;99.90;;;;;;20723675;28;20471;-52
2021/08/08 02:59:03;;;;;;;11.13;6.82;;;14.60;99.90;;;;;;20689432;28;20426;-48
2021/08/08 03:09:05;;;;;;;9.88;7.25;;;14.40;99.90;;;;;;20641345;28;20046;-49
2021/08/08 03:19:09;;;;;;;13.30;8.82;;;14.10;99.90;;;;;;20659351;28;20436;-49
2021/08/08 03:29:11;;;;;;;18.92;10.35;;;13.70;99.90;;;;;;20619396;28;20026;-50
2021/08/08 03:39:14;;;;;;;15.73;10.05;;;13.50;99.90;;;;;;20657785;28;20068;-56
2021/08/08 03:49:18;;;;;;;16.52;9.68;;;13.50;99.90;;;;;;20657035;28;20085;-50
2021/08/08 03:59:20;;;;;;;18.67;10.90;;;13.30;99.90;;;;;;20662201;28;20042;-50
2021/08/08 04:09:22;;;;;;;26.13;12.02;;;13.10;99.90;;;;;;20736012;28;20045;-49
2021/08/08 04:19:24;;;;;;;22.25;13.57;;;13.00;99.90;;;;;;20752772;28;20042;-50
2021/08/08 04:29:26;;;;;;;24.33;13.40;;;13.00;99.90;;;;;;20751715;28;20034;-53
2021/08/08 04:39:28;;;;;;;17.83;11.32;;;13.40;99.90;;;;;;20733675;28;20112;-51
2021/08/08 04:49:30;;;;;;;14.30;9.52;;;13.70;99.90;;;;;;20733132;28;20424;-55
2021/08/08 04:59:32;;;;;;;10.75;6.78;;;14.00;99.90;;;;;;20749696;28;20041;-53
2021/08/08 05:09:33;;;;;;;11.35;5.88;;;14.50;99.90;;;;;;20747644;28;20069;-52
2021/08/08 05:19:35;;;;;;;9.05;5.32;;;14.90;99.90;;;;;;20749542;28;20034;-50
2021/08/08 05:29:37;;;;;;;7.75;4.30;;;15.50;99.90;;;;;;20729937;28;20048;-52
2021/08/08 05:39:40;;;;;;;7.60;3.38;;;16.50;99.90;;;;;;20729012;28;20026;-52
2021/08/08 05:49:42;;;;;;;3.35;2.80;;;17.40;99.90;;;;;;20728456;28;20109;-55
2021/08/08 05:59:43;;;;;;;5.68;2.80;;;18.10;99.90;;;;;;20735659;28;20081;-51
2021/08/08 06:09:45;;;;;;;5.15;2.90;;;19.00;99.90;;;;;;20744077;28;20042;-54
2021/08/08 06:19:47;;;;;;;4.28;2.85;;;19.00;99.90;;;;;;20743216;28;20041;-55
2021/08/08 06:29:50;;;;;;;4.07;2.67;;;18.60;99.90;;;;;;20742637;28;20451;-54
2021/08/08 06:39:52;;;;;;;4.40;2.58;;;19.00;99.90;;;;;;20742354;28;20037;-56
2021/08/08 06:49:54;;;;;;;4.78;3.15;;;19.20;99.90;;;;;;20723409;28;20392;-51
2021/08/08 06:59:58;;;;;;;9.18;3.38;;;18.80;99.90;;;;;;20722487;28;20448;-54
2021/08/08 07:10:00;;;;;;;5.95;2.80;;;19.00;99.90;;;;;;20723091;28;20042;-56
2021/08/08 07:20:06;;;;;;;5.45;2.75;;;19.40;99.90;;;;;;20721823;28;20440;-53
2021/08/08 07:30:09;;;;;;;4.45;2.33;;;19.80;99.90;;;;;;20719584;28;20038;-53
2021/08/08 07:40:13;;;;;;;11.65;3.08;;;19.50;99.90;;;;;;20736548;28;20038;-55
2021/08/08 07:50:17;;;;;;;9.23;2.70;;;19.30;99.90;;;;;;20736567;28;20045;-52
2021/08/08 08:00:20;;;;;;;9.55;2.80;;;18.90;99.90;;;;;;20719825;28;20069;-56
2021/08/08 08:10:32;;;;;;;7.95;3.22;;;18.50;99.90;;;;;;20737414;28;20042;-56
2021/08/08 08:20:37;;;;;;;8.30;3.28;;;18.30;99.90;;;;;;20719197;28;20037;-57
2021/08/08 08:30:40;;;;;;;5.70;2.85;;;18.20;99.90;;;;;;20737920;28;20030;-57
2021/08/08 08:40:44;;;;;;;5.57;3.33;;;18.20;99.90;;;;;;20739347;28;20058;-54
2021/08/08 08:50:54;;;;;;;6.60;4.13;;;18.60;99.90;;;;;;20733524;28;20104;-54
2021/08/08 09:00:57;;;;;;;9.18;4.43;;;18.40;99.90;;;;;;20707093;28;20106;-58
2021/08/08 09:11:02;;;;;;;8.00;3.63;;;18.20;99.90;;;;;;20651102;28;20109;-54
2021/08/08 09:21:09;;;;;;;8.20;4.05;;;18.60;99.90;;;;;;20650007;28;20039;-57
2021/08/08 09:31:20;;;;;;;6.55;3.70;;;18.50;99.90;;;;;;20633326;28;20563;-51
2021/08/08 09:41:25;;;;;;;5.45;3.00;;;19.40;99.90;;;;;;20649142;28;20031;-49
2021/08/08 09:51:28;;;;;;;5.93;2.78;;;21.30;99.90;;;;;;20664299;28;20054;-57
2021/08/08 10:01:39;;;;;;;6.68;2.88;;;23.70;99.90;;;;;;20672540;28;20046;-52
2021/08/08 10:11:50;;;;;;;6.38;3.00;;;23.20;99.90;;;;;;20663701;28;20404;-51
2021/08/08 10:21:52;;;;;;;5.20;2.65;;;22.90;99.90;;;;;;20663795;28;20089;-56
2021/08/08 10:31:59;;;;;;;8.50;3.33;;;25.30;99.90;;;;;;20648010;28;20054;-51
2021/08/08 10:42:01;;;;;;;8.73;4.13;;;26.10;99.90;;;;;;20661309;28;20037;-52
2021/08/08 10:52:08;;;;;;;4.10;2.72;;;25.40;99.90;;;;;;20660939;28;20046;-51
2021/08/08 11:02:14;;;;;;;5.38;2.40;;;24.80;99.90;;;;;;20695902;28;20042;-53
2021/08/08 11:12:31;;;;;;;5.22;2.88;;;24.60;99.90;;;;;;20739413;28;20030;-54
2021/08/08 11:22:32;;;;;;;8.07;3.25;;;24.10;99.90;;;;;;20739091;28;20045;-57
2021/08/08 11:32:35;;;;;;;4.57;2.95;;;23.20;99.90;;;;;;20740402;28;20030;-53
2021/08/08 11:42:36;;;;;;;8.60;2.95;;;22.90;99.90;;;;;;20739364;28;20484;-52
2021/08/08 11:52:38;;;;;;;5.72;2.20;;;24.30;99.90;;;;;;20738847;28;20077;-53
2021/08/08 12:02:40;;;;;;;4.50;2.15;;;24.50;99.90;;;;;;20738536;28;20045;-52
2021/08/08 12:12:42;;;;;;;6.97;2.42;;;25.20;99.90;;;;;;20738251;28;20033;-53
2021/08/08 12:22:45;;;;;;;7.80;2.25;;;25.80;99.90;;;;;;20750881;28;20530;-52
2021/08/08 12:32:47;;;;;;;5.47;3.13;;;25.70;99.90;;;;;;20753108;28;20041;-57
2021/08/08 12:42:48;;;;;;;9.07;2.70;;;25.80;99.90;;;;;;20752050;28;20089;-52
2021/08/08 12:52:52;;;;;;;11.40;3.05;;;26.20;99.90;;;;;;20750590;28;20041;-58
2021/08/08 13:02:54;;;;;;;4.15;2.42;;;26.40;99.90;;;;;;20749687;28;20108;-51
2021/08/08 13:12:56;;;;;;;3.53;2.25;;;26.70;99.90;;;;;;20749463;28;20057;-50
2021/08/08 13:22:58;;;;;;;4.07;2.60;;;26.00;99.90;;;;;;20748928;28;20034;-57
2021/08/08 13:33:00;;;;;;;7.78;2.30;;;25.60;98.90;;;;;;20746821;28;20038;-50
2021/08/08 13:43:02;;;;;;;4.68;2.35;;;25.10;99.90;;;;;;20747660;28;20034;-54
2021/08/08 13:53:04;;;;;;;4.35;1.58;;;25.10;99.90;;;;;;20747298;28;20029;-55
2021/08/08 14:03:06;;;;;;;2.83;2.10;;;25.60;96.50;;;;;;20744861;28;20046;-53
2021/08/08 14:13:08;;;;;;;5.50;1.73;;;25.40;98.30;;;;;;20744472;28;20380;-56
2021/08/08 14:23:10;;;;;;;3.47;1.70;;;25.10;97.10;;;;;;20743424;28;20415;-53
2021/08/08 14:33:12;;;;;;;2.20;1.60;;;25.20;99.50;;;;;;20743192;28;20030;-54
2021/08/08 14:43:13;;;;;;;2.97;1.83;;;25.30;97.60;;;;;;20724790;28;20081;-55
2021/08/08 14:53:15;;;;;;;3.33;1.95;;;25.50;94.60;;;;;;20723624;28;20045;-53
2021/08/08 15:03:17;;;;;;;3.72;1.55;;;25.30;97.20;;;;;;20740113;28;20054;-55
2021/08/08 15:13:20;;;;;;;2.47;2.03;;;26.00;96.20;;;;;;20740406;28;20038;-52
2021/08/08 15:23:22;;;;;;;3.08;1.60;;;25.80;95.00;;;;;;20739948;28;20439;-52
2021/08/08 15:33:24;;;;;;;2.38;1.42;;;26.00;93.80;;;;;;20740041;28;20442;-55
2021/08/08 15:43:26;;;;;;;2.88;1.63;;;26.20;92.50;;;;;;20738765;28;20033;-53
2021/08/08 15:53:28;;;;;;;3.90;1.77;;;25.20;92.80;;;;;;20745449;28;20034;-56
2021/08/08 16:03:30;;;;;;;3.78;1.88;;;23.90;93.60;;;;;;20753712;28;20080;-51
2021/08/08 16:13:32;;;;;;;2.97;1.75;;;23.70;96.10;;;;;;20736369;28;20063;-57
2021/08/08 16:23:34;;;;;;;2.85;1.65;;;23.80;96.00;;;;;;20752509;28;20550;-53
2021/08/08 16:33:36;;;;;;;3.78;1.77;;;23.10;96.80;;;;;;20753000;28;20034;-56
2021/08/08 16:43:37;;;;;;;2.35;1.45;;;22.20;97.40;;;;;;20752597;28;20479;-55
2021/08/08 16:53:39;;;;;;;2.47;1.85;;;20.90;99.90;;;;;;20751496;28;20033;-52
2021/08/08 17:03:41;;;;;;;3.90;2.03;;;19.90;99.90;;;;;;20749554;28;20052;-51
2021/08/08 17:13:43;;;;;;;8.25;2.35;;;19.20;99.90;;;;;;20748698;28;20042;-52
2021/08/08 17:23:44;;;;;;;6.30;2.22;;;18.30;99.90;;;;;;20748840;28;20053;-53
2021/08/08 17:33:46;;;;;;;6.57;2.38;;;17.80;99.90;;;;;;20747916;28;20029;-49
2021/08/08 17:43:48;;;;;;;3.67;1.80;;;17.30;99.90;;;;;;20747035;28;20096;-55
2021/08/08 17:53:50;;;;;;;2.35;1.58;;;16.90;99.90;;;;;;20746665;28;20388;-54
2021/08/08 18:03:52;;;;;;;3.17;1.60;;;16.60;99.90;;;;;;20745855;28;20105;-48
2021/08/08 18:13:54;;;;;;;3.88;1.77;;;16.20;99.90;;;;;;20744367;28;20108;-48
2021/08/08 18:23:56;;;;;;;2.53;1.42;;;15.90;99.90;;;;;;20711646;28;20037;-48
2021/08/08 18:33:58;;;;;;;4.88;2.22;;;15.60;99.90;;;;;;20743216;28;20034;-49
2021/08/08 18:44:01;;;;;;;2.28;1.30;;;15.40;99.90;;;;;;20742214;28;20080;-52
2021/08/08 18:54:04;;;;;;;2.95;1.20;;;15.10;99.90;;;;;;20741908;28;20042;-53
2021/08/08 19:04:07;;;;;;;2.00;1.00;;;15.10;99.90;;;;;;20741889;28;20073;-51
2021/08/08 19:14:09;;;;;;;4.63;1.30;;;14.90;99.90;;;;;;20740299;28;20085;-48
2021/08/08 19:24:12;;;;;;;2.17;1.17;;;14.90;99.90;;;;;;20739328;28;20419;-56
2021/08/08 19:34:35;;;;;;;4.20;1.25;;;14.90;99.90;;;;;;20740386;28;20084;-53
2021/08/08 19:45:10;;;;;;;2.33;1.05;;;14.70;99.90;;;;;;20714963;28;20096;-52
2021/08/08 19:55:16;;;;;;;2.75;1.35;;;14.60;99.90;;;;;;20732376;28;20112;-59
2021/08/08 20:05:19;;;;;;;3.72;1.20;;;14.40;99.90;;;;;;20738041;28;20053;-56
2021/08/08 20:15:21;;;;;;;2.55;1.45;;;14.30;99.90;;;;;;20738407;28;20038;-57
2021/08/08 20:25:24;;;;;;;1.70;1.23;;;14.20;99.90;;;;;;20738586;28;20030;-54
2021/08/08 20:35:26;;;;;;;3.22;1.42;;;14.30;99.90;;;;;;20737924;28;20042;-61
2021/08/08 20:45:29;;;;;;;1.95;1.30;;;14.30;99.90;;;;;;20752719;28;20121;-60
2021/08/08 20:55:31;;;;;;;4.53;1.77;;;14.00;99.90;;;;;;20752488;28;20093;-57
2021/08/08 21:05:35;;;;;;;4.30;1.95;;;14.10;99.90;;;;;;20751282;28;20037;-52
2021/08/08 21:15:37;;;;;;;2.97;2.03;;;13.90;99.90;;;;;;20750342;28;20034;-55
2021/08/08 21:25:39;;;;;;;4.93;2.20;;;13.80;99.90;;;;;;20749703;28;20026;-54
2021/08/08 21:35:41;;;;;;;4.57;2.85;;;13.70;99.90;;;;;;20749297;28;20033;-51
2021/08/08 21:45:43;;;;;;;4.30;2.97;;;13.70;99.90;;;;;;20748531;28;20034;-55
2021/08/08 21:55:45;;;;;;;7.13;2.45;;;14.00;99.90;;;;;;20747151;28;20029;-52
2021/08/08 22:05:47;;;;;;;5.07;3.13;;;14.20;99.90;;;;;;20738105;28;20053;-52
2021/08/08 22:15:52;;;;;;;4.88;3.20;;;14.00;99.90;;;;;;20685155;28;20038;-54
2021/08/08 22:25:54;;;;;;;4.97;2.70;;;13.90;99.90;;;;;;20665160;28;20062;-53
2021/08/08 22:35:56;;;;;;;5.13;2.25;;;13.70;99.90;;;;;;20664248;28;20088;-51
2021/08/08 22:45:58;;;;;;;4.40;2.22;;;13.90;99.90;;;;;;20663324;28;20034;-56
2021/08/08 22:56:00;;;;;;;3.72;2.15;;;13.80;99.90;;;;;;20662565;28;20038;-56
2021/08/08 23:06:02;;;;;;;3.95;2.15;;;13.80;99.90;;;;;;20725870;28;20042;-54
2021/08/08 23:16:04;;;;;;;4.10;2.10;;;13.90;99.90;;;;;;20742798;28;20030;-52
2021/08/08 23:26:06;;;;;;;9.48;2.03;;;13.60;99.90;;;;;;20742001;28;20391;-54
2021/08/08 23:36:09;;;;;;;4.93;2.30;;;13.50;99.90;;;;;;20741142;28;20337;-52
2021/08/08 23:46:10;;;;;;;3.60;2.25;;;13.50;99.90;;;;;;20740071;28;20042;-55
2021/08/08 23:56:13;;;;;;;3.00;2.22;;;13.80;99.90;;;;;;20740200;28;20108;-52
